Time;durP1;ratioP1;P1;durP2;ratioP2;P2;SDS_P1;SDS_P2;PMS_P1;PMS_P2;Temp;Humidity;BMP_temperature;BMP_pressure;BME280_temperature;BME280_humidity;BME280_pressure;Samples;Min_cycle;Max_cycle;Signal;HPM_P1;HPM_P2
2024/03/05 00:01:00;;;;;;;;;;;17.90;60.40;;;;;;5092912;28;19944;-77
2024/03/05 00:03:26;;;;;;;;;;;18.20;60.30;;;;;;5092082;28;19924;-76
2024/03/05 00:05:51;;;;;;;;;;;18.20;60.70;;;;;;5092441;28;19908;-76
2024/03/05 00:08:17;;;;;;;;;;;18.20;60.80;;;;;;5092248;28;20290;-77
2024/03/05 00:10:42;;;;;;;;;;;18.10;60.60;;;;;;5092430;28;19908;-76
2024/03/05 00:13:08;;;;;;;;;;;18.10;60.50;;;;;;5092605;28;19908;-77
2024/03/05 00:15:34;;;;;;;;;;;18.20;60.50;;;;;;5092318;28;20546;-69
2024/03/05 00:17:59;;;;;;;;;;;18.30;61.00;;;;;;5092269;28;19908;-69
2024/03/05 00:20:25;;;;;;;;;;;18.20;61.10;;;;;;5092202;28;19919;-69
2024/03/05 00:22:51;;;;;;;;;;;18.20;60.40;;;;;;5092343;28;19916;-69
2024/03/05 00:25:17;;;;;;;;;;;18.20;60.90;;;;;;5092117;28;20007;-69
2024/03/05 00:27:44;;;;;;;;;;;18.10;61.20;;;;;;5092144;28;20316;-69
2024/03/05 00:30:10;;;;;;;;;;;18.20;61.00;;;;;;5092933;28;19908;-69
2024/03/05 00:32:37;;;;;;;;;;;18.10;59.70;;;;;;5091965;28;19961;-69
2024/03/05 00:35:04;;;;;;;;;;;18.20;61.00;;;;;;5092360;28;19983;-69
2024/03/05 00:37:30;;;;;;;;;;;18.10;60.70;;;;;;5092103;28;19990;-69
2024/03/05 00:39:55;;;;;;;;;;;18.10;61.10;;;;;;5091934;28;19919;-69
2024/03/05 00:42:21;;;;;;;;;;;18.10;61.20;;;;;;5092851;28;19916;-69
2024/03/05 00:44:46;;;;;;;;;;;18.20;60.90;;;;;;5096159;28;20350;-69
2024/03/05 00:47:13;;;;;;;;;;;18.00;60.80;;;;;;5095974;28;19953;-69
2024/03/05 00:49:39;;;;;;;;;;;18.20;61.20;;;;;;5095881;28;19915;-69
2024/03/05 00:52:05;;;;;;;;;;;18.10;61.10;;;;;;5096075;28;20069;-69
2024/03/05 00:54:31;;;;;;;;;;;18.10;60.70;;;;;;5096010;28;19912;-69
2024/03/05 00:56:56;;;;;;;;;;;18.20;61.40;;;;;;5095677;28;19908;-69
2024/03/05 00:59:22;;;;;;;;;;;18.10;61.20;;;;;;5096135;28;19916;-69
2024/03/05 01:01:49;;;;;;;;;;;18.20;60.90;;;;;;5095370;28;19908;-69
2024/03/05 01:04:14;;;;;;;;;;;18.10;61.20;;;;;;5096019;28;19908;-69
2024/03/05 01:06:44;;;;;;;;;;;18.10;61.40;;;;;;5095801;28;19930;-69
2024/03/05 01:09:18;;;;;;;;;;;18.10;57.10;;;;;;5095878;28;19908;-69
2024/03/05 01:11:44;;;;;;;;;;;18.10;61.20;;;;;;5095494;28;19962;-69
2024/03/05 01:14:09;;;;;;;;;;;18.10;61.60;;;;;;5095744;28;19914;-69
2024/03/05 01:16:37;;;;;;;;;;;18.10;61.30;;;;;;5095282;28;19912;-69
2024/03/05 01:19:03;;;;;;;;;;;18.00;61.40;;;;;;5095579;28;19908;-69
2024/03/05 01:21:30;;;;;;;;;;;18.10;61.40;;;;;;5095336;28;19960;-69
2024/03/05 01:23:57;;;;;;;;;;;18.00;61.40;;;;;;5095540;28;19923;-69
2024/03/05 01:26:22;;;;;;;;;;;18.00;61.60;;;;;;5095211;28;19908;-69
2024/03/05 01:28:48;;;;;;;;;;;18.10;61.40;;;;;;5095515;28;20282;-69
2024/03/05 01:31:13;;;;;;;;;;;18.10;61.80;;;;;;5095443;28;19943;-69
2024/03/05 01:33:40;;;;;;;;;;;18.30;61.60;;;;;;5095004;28;19908;-69
2024/03/05 01:36:06;;;;;;;;;;;18.00;61.30;;;;;;5095049;28;19931;-69
2024/03/05 01:38:33;;;;;;;;;;;18.10;60.90;;;;;;5095029;28;19908;-69
2024/03/05 01:40:58;;;;;;;;;;;18.10;61.40;;;;;;5094979;28;19957;-69
2024/03/05 01:43:24;;;;;;;;;;;18.10;61.80;;;;;;5076676;28;20374;-69
2024/03/05 01:45:51;;;;;;;;;;;18.10;61.40;;;;;;5095277;28;20003;-69
2024/03/05 01:48:16;;;;;;;;;;;18.00;61.60;;;;;;5094860;28;19919;-69
2024/03/05 01:50:42;;;;;;;;;;;18.00;61.00;;;;;;5095151;28;19912;-69
2024/03/05 01:53:09;;;;;;;;;;;18.10;61.30;;;;;;5094608;28;19916;-69
2024/03/05 01:55:37;;;;;;;;;;;18.00;61.40;;;;;;5093633;28;19909;-69
2024/03/05 01:58:03;;;;;;;;;;;18.10;61.40;;;;;;5094671;28;19960;-69
2024/03/05 02:00:29;;;;;;;;;;;18.00;61.10;;;;;;5094468;28;20435;-69
2024/03/05 02:02:55;;;;;;;;;;;18.10;60.60;;;;;;5094172;28;20011;-69
2024/03/05 02:05:21;;;;;;;;;;;18.00;61.50;;;;;;5094802;28;19959;-69
2024/03/05 02:07:47;;;;;;;;;;;18.00;61.20;;;;;;5094613;28;20311;-69
2024/03/05 02:10:13;;;;;;;;;;;18.00;61.40;;;;;;5094392;28;19912;-69
2024/03/05 02:12:42;;;;;;;;;;;18.00;61.60;;;;;;5094194;28;19908;-69
2024/03/05 02:15:11;;;;;;;;;;;18.00;59.50;;;;;;5094820;28;19909;-69
2024/03/05 02:17:38;;;;;;;;;;;18.00;61.00;;;;;;5094187;28;19999;-69
2024/03/05 02:20:05;;;;;;;;;;;17.90;61.30;;;;;;5094335;28;19908;-69
2024/03/05 02:22:30;;;;;;;;;;;17.90;60.40;;;;;;5094120;28;20305;-69
2024/03/05 02:24:56;;;;;;;;;;;18.00;61.40;;;;;;5094224;28;19912;-69
2024/03/05 02:27:21;;;;;;;;;;;17.90;61.20;;;;;;5075942;28;20370;-69
2024/03/05 02:29:47;;;;;;;;;;;17.90;61.40;;;;;;5093968;28;19920;-69
2024/03/05 02:32:12;;;;;;;;;;;17.90;61.40;;;;;;5093933;28;19961;-69
2024/03/05 02:34:38;;;;;;;;;;;17.90;61.60;;;;;;5093978;28;19908;-69
2024/03/05 02:37:04;;;;;;;;;;;17.90;61.40;;;;;;5093871;28;19908;-69
2024/03/05 02:39:30;;;;;;;;;;;17.90;61.40;;;;;;5093783;28;19908;-69
2024/03/05 02:41:56;;;;;;;;;;;17.90;61.50;;;;;;5094128;28;19912;-69
2024/03/05 02:44:21;;;;;;;;;;;17.90;61.60;;;;;;5075481;28;19960;-69
2024/03/05 02:46:47;;;;;;;;;;;17.90;61.60;;;;;;5093571;28;19908;-69
2024/03/05 02:49:13;;;;;;;;;;;17.80;61.30;;;;;;5093589;28;19944;-69
2024/03/05 02:51:39;;;;;;;;;;;17.90;61.50;;;;;;5093568;28;19912;-69
2024/03/05 02:54:06;;;;;;;;;;;17.90;61.30;;;;;;5093825;28;19915;-69
2024/03/05 02:56:32;;;;;;;;;;;17.80;61.50;;;;;;5093573;28;19916;-69
2024/03/05 02:58:57;;;;;;;;;;;17.30;61.10;;;;;;5093336;28;20312;-69
2024/03/05 03:01:24;;;;;;;;;;;17.80;61.20;;;;;;5093336;28;20294;-69
2024/03/05 03:03:49;;;;;;;;;;;17.80;61.60;;;;;;5093146;28;19919;-69
2024/03/05 03:06:16;;;;;;;;;;;17.80;61.60;;;;;;5092917;28;19919;-69
2024/03/05 03:08:43;;;;;;;;;;;17.70;61.70;;;;;;5093280;28;19965;-69
2024/03/05 03:11:14;;;;;;;;;;;17.80;61.40;;;;;;5093666;28;19943;-69
2024/03/05 03:13:40;;;;;;;;;;;17.80;61.60;;;;;;5093219;28;19909;-69
2024/03/05 03:16:05;;;;;;;;;;;17.80;61.50;;;;;;5092987;28;19934;-69
2024/03/05 03:18:31;;;;;;;;;;;17.70;61.10;;;;;;5093014;28;19908;-69
2024/03/05 03:20:57;;;;;;;;;;;17.70;61.50;;;;;;5093291;28;19912;-69
2024/03/05 03:23:23;;;;;;;;;;;17.80;61.20;;;;;;5092953;28;19916;-69
2024/03/05 03:25:48;;;;;;;;;;;17.80;61.70;;;;;;5093274;28;19908;-69
2024/03/05 03:28:14;;;;;;;;;;;17.80;62.10;;;;;;5092819;28;19908;-69
2024/03/05 03:30:39;;;;;;;;;;;17.70;61.70;;;;;;5074643;28;19916;-69
2024/03/05 03:33:05;;;;;;;;;;;17.70;61.60;;;;;;5092891;28;20006;-69
2024/03/05 03:35:30;;;;;;;;;;;17.70;61.80;;;;;;5093081;28;19927;-69
2024/03/05 03:37:57;;;;;;;;;;;17.80;61.50;;;;;;5092609;28;19908;-69
2024/03/05 03:40:22;;;;;;;;;;;17.70;62.00;;;;;;5093129;28;20053;-69
2024/03/05 03:42:49;;;;;;;;;;;17.70;62.00;;;;;;5092612;28;20449;-69
2024/03/05 03:45:17;;;;;;;;;;;17.70;62.10;;;;;;5092126;28;20212;-69
2024/03/05 03:47:43;;;;;;;;;;;17.60;62.10;;;;;;5092605;28;19908;-69
2024/03/05 03:50:09;;;;;;;;;;;17.70;62.30;;;;;;5092585;28;19914;-68
2024/03/05 03:52:35;;;;;;;;;;;17.60;62.20;;;;;;5092768;28;19998;-69
2024/03/05 03:55:01;;;;;;;;;;;17.70;62.40;;;;;;5074309;28;19951;-69
2024/03/05 03:57:26;;;;;;;;;;;17.70;62.00;;;;;;5092481;28;19909;-69
2024/03/05 03:59:53;;;;;;;;;;;17.60;62.30;;;;;;5092520;28;19953;-69
2024/03/05 04:02:19;;;;;;;;;;;17.60;61.60;;;;;;5092078;28;19923;-69
2024/03/05 04:04:45;;;;;;;;;;;17.70;62.50;;;;;;5092436;28;19935;-69
2024/03/05 04:07:11;;;;;;;;;;;17.60;62.00;;;;;;5092819;28;19909;-69
2024/03/05 04:09:36;;;;;;;;;;;17.60;62.30;;;;;;5092384;28;19908;-69
2024/03/05 04:12:02;;;;;;;;;;;17.70;62.20;;;;;;5092342;28;19943;-69
2024/03/05 04:14:27;;;;;;;;;;;17.60;61.90;;;;;;5092292;28;19915;-69
2024/03/05 04:16:53;;;;;;;;;;;17.60;62.00;;;;;;5091527;28;19961;-69
2024/03/05 04:19:18;;;;;;;;;;;17.60;62.10;;;;;;5092226;28;19948;-69
2024/03/05 04:21:45;;;;;;;;;;;17.60;61.90;;;;;;5092139;28;19909;-69
2024/03/05 04:24:14;;;;;;;;;;;17.60;62.40;;;;;;5092348;28;20271;-69
2024/03/05 04:26:41;;;;;;;;;;;17.70;61.50;;;;;;5092190;28;20373;-69
2024/03/05 04:29:09;;;;;;;;;;;17.60;62.20;;;;;;5092490;28;20446;-69
2024/03/05 04:31:38;;;;;;;;;;;17.70;62.10;;;;;;5092089;28;20006;-69
2024/03/05 04:34:05;;;;;;;;;;;17.60;58.20;;;;;;5092393;28;19908;-69
2024/03/05 04:36:36;;;;;;;;;;;17.60;62.40;;;;;;5092592;28;19916;-76
2024/03/05 04:39:01;;;;;;;;;;;17.60;62.60;;;;;;5098960;28;20058;-76
2024/03/05 04:41:27;;;;;;;;;;;17.60;62.40;;;;;;5092028;28;19943;-76
2024/03/05 04:43:52;;;;;;;;;;;17.60;62.10;;;;;;5092196;28;19917;-76
2024/03/05 04:46:18;;;;;;;;;;;17.60;62.50;;;;;;5091923;28;19908;-77
2024/03/05 04:48:44;;;;;;;;;;;17.60;62.40;;;;;;5092338;28;19912;-77
2024/03/05 04:51:12;;;;;;;;;;;17.60;62.10;;;;;;5092262;28;19920;-76
2024/03/05 04:53:38;;;;;;;;;;;17.60;61.90;;;;;;5092223;28;19908;-76
2024/03/05 04:56:07;;;;;;;;;;;17.60;62.10;;;;;;5091776;28;19908;-76
2024/03/05 04:58:34;;;;;;;;;;;17.90;61.60;;;;;;5092122;28;19973;-77
2024/03/05 05:01:00;;;;;;;;;;;17.60;62.10;;;;;;5092179;28;20434;-76
2024/03/05 05:03:27;;;;;;;;;;;17.60;61.80;;;;;;5091452;28;19977;-76
2024/03/05 05:05:55;;;;;;;;;;;17.60;62.30;;;;;;5092256;28;19908;-77
2024/03/05 05:08:22;;;;;;;;;;;17.60;58.60;;;;;;5092023;28;20307;-76
2024/03/05 05:10:48;;;;;;;;;;;17.70;62.20;;;;;;5092123;28;20262;-77
2024/03/05 05:13:14;;;;;;;;;;;17.60;62.30;;;;;;5091748;28;19908;-77
2024/03/05 05:15:40;;;;;;;;;;;17.50;62.00;;;;;;5092059;28;19912;-77
2024/03/05 05:18:06;;;;;;;;;;;17.60;62.30;;;;;;5092146;28;19912;-77
2024/03/05 05:20:32;;;;;;;;;;;17.60;62.10;;;;;;5091653;28;19919;-77
2024/03/05 05:22:58;;;;;;;;;;;17.80;62.50;;;;;;5091889;28;19916;-77
2024/03/05 05:25:24;;;;;;;;;;;17.60;62.20;;;;;;5091631;28;19931;-77
2024/03/05 05:27:50;;;;;;;;;;;17.50;62.40;;;;;;5091874;28;19908;-77
2024/03/05 05:30:17;;;;;;;;;;;17.50;62.20;;;;;;5095057;28;19912;-77
2024/03/05 05:32:44;;;;;;;;;;;17.70;62.80;;;;;;5095633;28;19915;-77
2024/03/05 05:35:10;;;;;;;;;;;17.50;62.40;;;;;;5095384;28;19915;-77
2024/03/05 05:37:39;;;;;;;;;;;17.60;62.40;;;;;;5094868;28;20343;-77
2024/03/05 05:40:10;;;;;;;;;;;17.60;60.80;;;;;;5095282;28;19912;-76
2024/03/05 05:42:37;;;;;;;;;;;17.50;61.20;;;;;;5095107;28;19954;-77
2024/03/05 05:45:08;;;;;;;;;;;17.50;62.40;;;;;;5095324;28;19928;-77
2024/03/05 05:47:53;;;;;;;;;;;17.40;61.00;;;;;;5099287;28;19916;-76
2024/03/05 05:50:21;;;;;;;;;;;17.60;58.50;;;;;;5095634;28;19915;-77
2024/03/05 05:52:48;;;;;;;;;;;17.50;62.30;;;;;;5094941;28;20006;-75
2024/03/05 05:55:15;;;;;;;;;;;17.50;62.40;;;;;;5095195;28;20277;-75
2024/03/05 05:57:44;;;;;;;;;;;17.60;62.50;;;;;;5095006;28;19985;-76
2024/03/05 06:00:22;;;;;;;;;;;17.40;58.10;;;;;;5095174;28;19915;-76
2024/03/05 06:02:52;;;;;;;;;;;17.50;62.10;;;;;;5094975;28;20382;-76
2024/03/05 06:05:19;;;;;;;;;;;17.50;62.90;;;;;;5094783;28;19908;-75
2024/03/05 06:07:45;;;;;;;;;;;17.50;62.70;;;;;;5094944;28;19912;-75
2024/03/05 06:10:14;;;;;;;;;;;17.50;62.50;;;;;;5094896;28;19943;-76
2024/03/05 06:12:40;;;;;;;;;;;17.40;62.70;;;;;;5094833;28;20285;-76
2024/03/05 06:15:08;;;;;;;;;;;17.80;62.70;;;;;;5094587;28;19931;-76
2024/03/05 06:17:34;;;;;;;;;;;17.40;61.50;;;;;;5094729;28;20255;-76
2024/03/05 06:20:00;;;;;;;;;;;17.50;62.70;;;;;;5094400;28;19916;-76
2024/03/05 06:22:28;;;;;;;;;;;17.50;62.60;;;;;;5094527;28;19939;-76
2024/03/05 06:24:54;;;;;;;;;;;17.40;62.60;;;;;;5094616;28;19965;-76
2024/03/05 06:27:20;;;;;;;;;;;17.50;62.60;;;;;;5094586;28;19908;-75
2024/03/05 06:29:46;;;;;;;;;;;17.50;62.80;;;;;;5094903;28;20437;-68
2024/03/05 06:32:11;;;;;;;;;;;17.40;62.80;;;;;;5094130;28;20385;-68
2024/03/05 06:34:37;;;;;;;;;;;17.40;63.10;;;;;;5094425;28;19908;-68
2024/03/05 06:37:04;;;;;;;;;;;17.50;62.80;;;;;;5094313;28;19908;-69
2024/03/05 06:39:30;;;;;;;;;;;17.40;62.90;;;;;;5094043;28;19930;-69
2024/03/05 06:41:58;;;;;;;;;;;17.40;63.20;;;;;;5093677;28;20317;-69
2024/03/05 06:44:25;;;;;;;;;;;17.40;62.80;;;;;;5094176;28;19914;-69
2024/03/05 06:46:53;;;;;;;;;;;17.40;63.10;;;;;;5093981;28;19908;-68
2024/03/05 06:49:27;;;;;;;;;;;17.40;62.90;;;;;;5093982;28;19908;-69
2024/03/05 06:51:55;;;;;;;;;;;17.50;63.00;;;;;;5093536;28;19954;-68
2024/03/05 06:57:05;;;;;;;;;;;17.50;59.90;;;;;;5093924;28;19938;-70
2024/03/05 06:59:30;;;;;;;;;;;17.40;62.80;;;;;;5095288;28;19912;-73
2024/03/05 07:01:56;;;;;;;;;;;17.50;62.60;;;;;;5093185;28;20002;-69
2024/03/05 07:04:22;;;;;;;;;;;17.40;62.90;;;;;;5093547;28;19916;-69
2024/03/05 07:06:49;;;;;;;;;;;17.40;63.00;;;;;;5093405;28;20007;-71
2024/03/05 07:09:15;;;;;;;;;;;17.40;63.10;;;;;;5093260;28;19915;-70
2024/03/05 07:11:41;;;;;;;;;;;17.40;62.80;;;;;;5093283;28;19909;-69
2024/03/05 07:14:09;;;;;;;;;;;17.40;63.00;;;;;;5093209;28;19915;-70
2024/03/05 07:16:35;;;;;;;;;;;17.30;59.70;;;;;;5093346;28;19912;-70
2024/03/05 07:19:03;;;;;;;;;;;17.40;63.10;;;;;;5093645;28;19948;-70
2024/03/05 07:21:29;;;;;;;;;;;17.30;62.80;;;;;;5093531;28;19908;-70
2024/03/05 07:23:56;;;;;;;;;;;17.40;63.10;;;;;;5093086;28;19916;-70
2024/03/05 07:26:23;;;;;;;;;;;17.40;62.60;;;;;;5093427;28;19908;-69
2024/03/05 07:28:49;;;;;;;;;;;17.40;63.00;;;;;;5093292;28;19909;-70
2024/03/05 07:31:15;;;;;;;;;;;17.40;63.10;;;;;;5093270;28;19939;-69
2024/03/05 07:33:42;;;;;;;;;;;17.40;63.20;;;;;;5092944;28;20011;-69
2024/03/05 07:36:08;;;;;;;;;;;17.40;62.90;;;;;;5092923;28;19916;-69
2024/03/05 07:38:34;;;;;;;;;;;17.30;62.70;;;;;;5075251;28;19908;-69
2024/03/05 07:41:00;;;;;;;;;;;17.40;63.30;;;;;;5093049;28;19933;-69
2024/03/05 07:43:26;;;;;;;;;;;17.30;62.90;;;;;;5092922;28;19953;-69
2024/03/05 07:45:52;;;;;;;;;;;17.40;63.20;;;;;;5093034;28;19962;-69
2024/03/05 07:48:18;;;;;;;;;;;17.30;62.90;;;;;;5092826;28;19908;-69
2024/03/05 07:50:44;;;;;;;;;;;17.40;63.20;;;;;;5092790;28;19914;-69
2024/03/05 07:53:10;;;;;;;;;;;17.30;63.60;;;;;;5074526;28;19915;-69
2024/03/05 07:55:39;;;;;;;;;;;17.40;63.10;;;;;;5093143;28;19950;-69
2024/03/05 07:58:06;;;;;;;;;;;17.30;63.00;;;;;;5092596;28;19912;-69
2024/03/05 08:00:32;;;;;;;;;;;17.50;63.10;;;;;;5092878;28;20002;-69
2024/03/05 08:02:58;;;;;;;;;;;17.30;62.60;;;;;;5092175;28;19920;-69
2024/03/05 08:05:25;;;;;;;;;;;18.20;63.90;;;;;;5092912;28;19954;-69
2024/03/05 08:07:52;;;;;;;;;;;17.30;63.10;;;;;;5092711;28;19908;-69
2024/03/05 08:10:18;;;;;;;;;;;17.30;63.10;;;;;;5092682;28;20269;-69
2024/03/05 08:12:45;;;;;;;;;;;17.40;63.20;;;;;;5092724;28;19909;-69
2024/03/05 08:15:17;;;;;;;;;;;17.40;63.40;;;;;;5092576;28;20275;-69
2024/03/05 08:17:47;;;;;;;;;;;17.40;63.40;;;;;;5092339;28;20453;-69
2024/03/05 08:20:20;;;;;;;;;;;17.40;63.10;;;;;;5092533;28;19908;-69
2024/03/05 08:22:46;;;;;;;;;;;17.30;58.80;;;;;;5092734;28;19920;-69
2024/03/05 08:25:13;;;;;;;;;;;17.30;63.10;;;;;;5092178;28;19915;-69
2024/03/05 08:27:39;;;;;;;;;;;17.30;63.20;;;;;;5092137;28;19909;-69
2024/03/05 08:30:07;;;;;;;;;;;17.30;63.20;;;;;;5092442;28;19912;-69
2024/03/05 08:32:37;;;;;;;;;;;17.40;61.60;;;;;;5092477;28;20000;-69
2024/03/05 08:35:03;;;;;;;;;;;17.40;63.00;;;;;;5092254;28;20378;-69
2024/03/05 08:37:30;;;;;;;;;;;17.30;62.60;;;;;;5092642;28;19918;-69
2024/03/05 08:39:56;;;;;;;;;;;17.30;63.00;;;;;;5092329;28;19919;-69
2024/03/05 08:42:22;;;;;;;;;;;17.30;63.10;;;;;;5091984;28;20004;-69
2024/03/05 08:44:48;;;;;;;;;;;17.40;63.10;;;;;;5092312;28;19908;-69
2024/03/05 08:47:14;;;;;;;;;;;17.40;63.20;;;;;;5092252;28;19915;-69
2024/03/05 08:49:40;;;;;;;;;;;17.40;63.10;;;;;;5092043;28;20350;-69
2024/03/05 08:52:06;;;;;;;;;;;17.40;62.90;;;;;;5092490;28;19998;-69
2024/03/05 08:54:32;;;;;;;;;;;17.30;62.90;;;;;;5091878;28;20382;-69
2024/03/05 08:56:58;;;;;;;;;;;17.40;63.30;;;;;;5092229;28;19908;-69
2024/03/05 08:59:27;;;;;;;;;;;17.30;63.00;;;;;;5092135;28;20281;-69
2024/03/05 09:01:53;;;;;;;;;;;17.30;62.40;;;;;;5091937;28;19973;-69
2024/03/05 09:04:20;;;;;;;;;;;17.30;63.20;;;;;;5094107;28;20324;-69
2024/03/05 09:06:46;;;;;;;;;;;17.20;63.00;;;;;;5096022;28;19920;-69
2024/03/05 09:09:12;;;;;;;;;;;17.50;63.20;;;;;;5096076;28;19912;-69
2024/03/05 09:11:38;;;;;;;;;;;17.30;62.90;;;;;;5095985;28;20320;-69
2024/03/05 09:14:05;;;;;;;;;;;17.20;63.90;;;;;;5095918;28;19931;-69
2024/03/05 09:16:31;;;;;;;;;;;17.30;62.80;;;;;;5095631;28;20373;-69
2024/03/05 09:18:57;;;;;;;;;;;17.30;62.70;;;;;;5096364;28;19984;-69
2024/03/05 09:21:23;;;;;;;;;;;17.30;63.00;;;;;;5095884;28;19908;-69
2024/03/05 09:23:52;;;;;;;;;;;17.30;63.10;;;;;;5095693;28;19916;-69
2024/03/05 09:26:18;;;;;;;;;;;17.30;60.40;;;;;;5095419;28;19953;-69
2024/03/05 09:28:44;;;;;;;;;;;17.20;62.90;;;;;;5095658;28;19912;-69
2024/03/05 09:31:10;;;;;;;;;;;17.40;62.80;;;;;;5095421;28;19908;-69
2024/03/05 09:33:36;;;;;;;;;;;17.20;63.10;;;;;;5095674;28;19913;-69
2024/03/05 09:36:04;;;;;;;;;;;17.30;63.00;;;;;;5095587;28;19908;-69
2024/03/05 09:38:31;;;;;;;;;;;17.30;62.60;;;;;;5095092;28;19908;-69
2024/03/05 09:40:57;;;;;;;;;;;17.40;62.90;;;;;;5095501;28;20337;-69
2024/03/05 09:43:24;;;;;;;;;;;17.30;62.90;;;;;;5094996;28;20007;-69
2024/03/05 09:45:51;;;;;;;;;;;17.30;63.10;;;;;;5095049;28;19908;-69
2024/03/05 09:48:18;;;;;;;;;;;17.30;62.70;;;;;;5095769;28;19912;-69
2024/03/05 09:50:45;;;;;;;;;;;17.20;63.20;;;;;;5095194;28;19908;-69
2024/03/05 09:53:12;;;;;;;;;;;17.20;63.20;;;;;;5095516;28;19908;-69
2024/03/05 09:55:38;;;;;;;;;;;17.80;63.40;;;;;;5094818;28;19908;-69
2024/03/05 09:58:09;;;;;;;;;;;17.20;64.00;;;;;;5095187;28;19915;-69
2024/03/05 10:00:37;;;;;;;;;;;17.20;63.80;;;;;;5095175;28;20341;-69
2024/03/05 10:03:03;;;;;;;;;;;17.30;63.00;;;;;;5094580;28;20263;-69
2024/03/05 10:05:29;;;;;;;;;;;17.30;62.90;;;;;;5094681;28;19915;-69
2024/03/05 10:07:55;;;;;;;;;;;17.20;63.50;;;;;;5095165;28;20132;-69
2024/03/05 10:10:21;;;;;;;;;;;17.20;63.50;;;;;;5094883;28;19908;-69
2024/03/05 10:12:49;;;;;;;;;;;17.00;63.40;;;;;;5094788;28;19962;-69
2024/03/05 10:15:20;;;;;;;;;;;17.30;63.70;;;;;;5093486;28;19962;-69
2024/03/05 10:17:50;;;;;;;;;;;17.20;63.10;;;;;;5094887;28;19912;-69
2024/03/05 10:20:26;;;;;;;;;;;17.30;63.80;;;;;;5094315;28;20010;-69
2024/03/05 10:22:52;;;;;;;;;;;17.20;59.20;;;;;;5094510;28;19917;-69
2024/03/05 10:25:19;;;;;;;;;;;17.30;63.90;;;;;;5094161;28;19912;-69
2024/03/05 10:27:45;;;;;;;;;;;17.30;64.00;;;;;;5094037;28;19908;-69
2024/03/05 10:30:31;;;;;;;;;;;17.30;63.90;;;;;;5094171;28;19908;-69
2024/03/05 10:32:59;;;;;;;;;;;17.50;60.00;;;;;;5094355;28;19908;-69
2024/03/05 10:35:25;;;;;;;;;;;17.30;63.90;;;;;;5094007;28;19915;-69
2024/03/05 10:37:54;;;;;;;;;;;17.20;63.90;;;;;;5094190;28;19908;-69
2024/03/05 10:40:20;;;;;;;;;;;17.30;59.40;;;;;;5093814;28;20366;-69
2024/03/05 10:42:48;;;;;;;;;;;17.30;64.10;;;;;;5093973;28;19916;-69
2024/03/05 10:45:14;;;;;;;;;;;17.30;63.90;;;;;;5094408;28;19908;-69
2024/03/05 10:47:40;;;;;;;;;;;17.20;64.00;;;;;;5093739;28;20365;-69
2024/03/05 10:50:07;;;;;;;;;;;17.30;63.90;;;;;;5093649;28;19919;-69
2024/03/05 10:52:33;;;;;;;;;;;17.30;63.20;;;;;;5093988;28;19917;-69
2024/03/05 10:55:00;;;;;;;;;;;17.30;63.60;;;;;;5093932;28;19908;-69
2024/03/05 10:57:28;;;;;;;;;;;17.30;64.00;;;;;;5093942;28;19908;-69
2024/03/05 10:59:54;;;;;;;;;;;17.30;63.70;;;;;;5093805;28;19909;-69
2024/03/05 11:02:25;;;;;;;;;;;17.30;63.50;;;;;;5093293;28;19920;-69
2024/03/05 11:04:53;;;;;;;;;;;17.60;64.00;;;;;;5093674;28;20281;-69
2024/03/05 11:07:19;;;;;;;;;;;17.40;64.00;;;;;;5093707;28;19961;-69
2024/03/05 11:09:45;;;;;;;;;;;17.40;64.30;;;;;;5093411;28;19916;-69
2024/03/05 11:12:13;;;;;;;;;;;17.40;64.00;;;;;;5093658;28;19922;-69
2024/03/05 11:14:40;;;;;;;;;;;17.30;64.10;;;;;;5093664;28;19908;-69
2024/03/05 11:17:09;;;;;;;;;;;17.30;63.60;;;;;;5093494;28;20025;-69
2024/03/05 11:19:54;;;;;;;;;;;17.40;64.10;;;;;;5091652;28;19998;-69
2024/03/05 11:22:22;;;;;;;;;;;17.30;63.90;;;;;;5093146;28;19923;-69
2024/03/05 11:24:58;;;;;;;;;;;17.30;63.60;;;;;;5093427;28;19908;-69
2024/03/05 11:27:25;;;;;;;;;;;17.30;59.30;;;;;;5093135;28;19915;-69
2024/03/05 11:30:10;;;;;;;;;;;17.30;63.80;;;;;;5092849;28;20393;-69
2024/03/05 11:32:38;;;;;;;;;;;17.40;59.40;;;;;;5092952;28;19915;-69
2024/03/05 11:35:04;;;;;;;;;;;17.40;63.20;;;;;;5093201;28;19912;-69
2024/03/05 11:37:44;;;;;;;;;;;17.00;62.90;;;;;;5092742;28;19908;-69
2024/03/05 11:40:12;;;;;;;;;;;17.20;63.90;;;;;;5093097;28;19918;-69
2024/03/05 11:42:43;;;;;;;;;;;17.40;62.50;;;;;;5093253;28;20358;-69
2024/03/05 11:45:09;;;;;;;;;;;17.40;64.00;;;;;;5092944;28;19912;-69
2024/03/05 11:47:35;;;;;;;;;;;17.60;63.90;;;;;;5092718;28;19932;-69
2024/03/05 11:50:04;;;;;;;;;;;17.40;64.00;;;;;;5092523;28;19908;-69
2024/03/05 11:52:31;;;;;;;;;;;17.30;59.50;;;;;;5092929;28;19908;-69
2024/03/05 11:55:02;;;;;;;;;;;17.40;63.90;;;;;;5092605;28;19915;-69
2024/03/05 11:57:29;;;;;;;;;;;17.40;59.30;;;;;;5092523;28;19965;-69
2024/03/05 11:59:55;;;;;;;;;;;17.40;63.50;;;;;;5092498;28;20363;-69
2024/03/05 12:02:22;;;;;;;;;;;17.40;63.20;;;;;;5092353;28;19924;-69
2024/03/05 12:04:49;;;;;;;;;;;17.40;63.70;;;;;;5092794;28;19908;-69
2024/03/05 12:07:15;;;;;;;;;;;17.30;63.10;;;;;;5092687;28;19919;-69
2024/03/05 12:09:44;;;;;;;;;;;17.10;63.50;;;;;;5092991;28;19909;-69
2024/03/05 12:12:11;;;;;;;;;;;18.70;60.30;;;;;;5092679;28;20376;-69
2024/03/05 12:14:39;;;;;;;;;;;17.40;63.80;;;;;;5092252;28;19908;-69
2024/03/05 12:17:07;;;;;;;;;;;17.30;64.00;;;;;;5092573;28;19994;-69
2024/03/05 12:19:33;;;;;;;;;;;17.30;63.50;;;;;;5092570;28;19916;-69
2024/03/05 12:21:59;;;;;;;;;;;17.40;63.60;;;;;;5092594;28;19915;-69
2024/03/05 12:24:29;;;;;;;;;;;17.30;63.90;;;;;;5092484;28;19922;-69
2024/03/05 12:26:56;;;;;;;;;;;17.30;59.30;;;;;;5092498;28;19961;-69
2024/03/05 12:29:26;;;;;;;;;;;17.40;63.90;;;;;;5092142;28;19908;-69
2024/03/05 12:31:52;;;;;;;;;;;17.40;59.30;;;;;;5092493;28;19954;-69
2024/03/05 12:34:18;;;;;;;;;;;17.40;63.70;;;;;;5092414;28;19908;-69
2024/03/05 12:36:44;;;;;;;;;;;17.40;63.60;;;;;;5092432;28;19908;-69
2024/03/05 12:39:10;;;;;;;;;;;17.30;63.80;;;;;;5094986;28;19986;-69
2024/03/05 12:41:40;;;;;;;;;;;17.40;63.50;;;;;;5096502;28;19912;-69
2024/03/05 12:44:06;;;;;;;;;;;17.30;63.50;;;;;;5096696;28;20447;-69
2024/03/05 12:46:32;;;;;;;;;;;17.40;63.50;;;;;;5096255;28;20094;-69
2024/03/05 12:48:58;;;;;;;;;;;17.30;63.70;;;;;;5096500;28;19915;-69
2024/03/05 12:51:25;;;;;;;;;;;17.40;63.50;;;;;;5096439;28;19908;-69
2024/03/05 12:53:59;;;;;;;;;;;17.40;64.10;;;;;;5096112;28;19908;-69
2024/03/05 12:56:26;;;;;;;;;;;17.30;63.60;;;;;;5096023;28;19915;-69
2024/03/05 12:58:52;;;;;;;;;;;17.30;63.50;;;;;;5096276;28;19915;-69
2024/03/05 13:01:19;;;;;;;;;;;17.40;63.60;;;;;;5096133;28;19908;-69
2024/03/05 13:03:45;;;;;;;;;;;17.40;63.10;;;;;;5095644;28;19927;-69
2024/03/05 13:06:11;;;;;;;;;;;17.30;63.40;;;;;;5095749;28;20348;-69
2024/03/05 13:08:37;;;;;;;;;;;17.40;63.70;;;;;;5096526;28;20271;-69
2024/03/05 13:11:04;;;;;;;;;;;17.40;63.30;;;;;;5095957;28;19962;-69
2024/03/05 13:13:30;;;;;;;;;;;17.30;62.90;;;;;;5095607;28;19908;-69
2024/03/05 13:15:56;;;;;;;;;;;17.40;63.80;;;;;;5095987;28;19965;-69
2024/03/05 13:18:22;;;;;;;;;;;17.40;63.70;;;;;;5095537;28;19947;-69
2024/03/05 13:20:48;;;;;;;;;;;17.10;63.50;;;;;;5095885;28;19947;-69
2024/03/05 13:23:14;;;;;;;;;;;17.40;63.50;;;;;;5095610;28;19994;-69
2024/03/05 13:25:40;;;;;;;;;;;17.40;63.70;;;;;;5095645;28;19912;-69
2024/03/05 13:28:06;;;;;;;;;;;17.50;63.60;;;;;;5095299;28;19912;-69
2024/03/05 13:30:32;;;;;;;;;;;17.30;63.70;;;;;;5095162;28;19908;-69
2024/03/05 13:32:58;;;;;;;;;;;17.40;63.60;;;;;;5095603;28;19908;-69
2024/03/05 13:35:26;;;;;;;;;;;17.50;63.90;;;;;;5096005;28;19982;-69
2024/03/05 13:38:10;;;;;;;;;;;17.30;63.40;;;;;;5093815;28;20338;-69
2024/03/05 13:40:36;;;;;;;;;;;17.40;63.50;;;;;;5095294;28;19931;-69
2024/03/05 13:43:02;;;;;;;;;;;17.40;63.60;;;;;;5095372;28;19916;-69
2024/03/05 13:45:28;;;;;;;;;;;17.30;63.40;;;;;;5095015;28;19908;-69
2024/03/05 13:47:54;;;;;;;;;;;17.40;63.60;;;;;;5095314;28;19908;-69
2024/03/05 13:50:20;;;;;;;;;;;17.40;63.60;;;;;;5095004;28;20274;-69
2024/03/05 13:52:47;;;;;;;;;;;17.40;63.80;;;;;;5095287;28;19966;-69
2024/03/05 13:55:15;;;;;;;;;;;17.40;63.80;;;;;;5095432;28;20286;-69
2024/03/05 13:57:41;;;;;;;;;;;17.40;63.80;;;;;;5095011;28;19908;-69
2024/03/05 14:00:08;;;;;;;;;;;17.30;63.40;;;;;;5094698;28;19954;-69
2024/03/05 14:02:35;;;;;;;;;;;17.30;63.10;;;;;;5094418;28;19920;-69
2024/03/05 14:05:02;;;;;;;;;;;17.40;63.70;;;;;;5095497;28;19943;-69
2024/03/05 14:07:28;;;;;;;;;;;17.30;63.60;;;;;;5094910;28;19908;-69
2024/03/05 14:09:57;;;;;;;;;;;17.30;63.80;;;;;;5094575;28;19931;-69
2024/03/05 14:12:23;;;;;;;;;;;17.30;59.30;;;;;;5094853;28;19934;-69
2024/03/05 14:14:49;;;;;;;;;;;17.30;63.80;;;;;;5094693;28;19909;-69
2024/03/05 14:17:15;;;;;;;;;;;17.40;64.00;;;;;;5094820;28;19935;-69